Data for 05/31/2016

Time Sea-Level Adjusted Pressure Absolute Pressure Temperature Relative Humidity Dew Point   
(mb) (inHg) (mb) (inHg) (C) (F) (%) (C) (F)
00:05 1023 30.21 852 25.16 6.1 43 60 -1.1 30.1
00:10 1023 30.21 852 25.16 6.2 43.1 60 -1 30.1
00:15 1023 30.21 852 25.16 6.2 43.1 60 -0.9 30.4
00:20 1023 30.21 852 25.16 5.9 42.6 62 -0.7 30.7
00:25 1023 30.21 852 25.16 5.6 42.1 64 -0.7 30.7
00:30 1023 30.21 852 25.16 5.5 42 65 -0.6 31
00:35 1023 30.21 853 25.19 5.4 41.7 65 -0.6 30.9
00:40 1023 30.21 853 25.19 5.4 41.8 65 -0.6 30.9
00:45 1023 30.21 853 25.19 5.4 41.6 66 -0.6 31
00:50 1023 30.21 853 25.19 5.2 41.4 66 -0.5 31
00:55 1023 30.21 853 25.19 5.1 41.2 66 -0.7 30.7
01:00 1023 30.21 853 25.19 5.4 41.7 65 -0.7 30.8
01:05 1023 30.21 853 25.19 5.5 41.9 65 -0.6 31
01:10 1023 30.21 853 25.19 5.8 42.4 61 -1 30.2
01:15 1023 30.21 853 25.19 6.4 43.5 60 -0.9 30.4
01:20 1023 30.21 853 25.19 6.4 43.5 60 -0.7 30.7
01:25 1023 30.21 853 25.19 6.6 43.9 59 -0.9 30.3
01:30 1023 30.21 853 25.19 6.8 44.3 59 -0.7 30.8
01:35 1023 30.21 853 25.19 6.7 44.1 59 -0.6 30.8
01:40 1023 30.21 853 25.19 6.6 43.9 60 -0.5 31.1
01:45 1023 30.21 853 25.19 6.2 43.2 63 -0.2 31.6
01:50 1023 30.21 853 25.19 5.5 41.9 66 -0.4 31.3
01:55 1023 30.21 853 25.19 4.8 40.7 69 -0.4 31.3
02:00 1023 30.21 853 25.19 4.5 40 69 -0.7 30.7
02:05 1023 30.21 853 25.19 4.2 39.6 70 -0.8 30.5
02:10 1023 30.21 853 25.19 4.3 39.7 69 -1 30.2
02:15 1024 30.24 853 25.19 4.4 39.9 68 -0.9 30.4
02:20 1024 30.24 853 25.19 4.4 39.9 68 -0.9 30.3
02:25 1024 30.24 853 25.19 4.4 40 69 -0.7 30.7
02:30 1024 30.24 853 25.19 4.3 39.8 70 -0.7 30.7
02:35 1024 30.24 853 25.19 4.4 39.8 69 -0.8 30.6
02:40 1024 30.24 853 25.19 4.4 39.9 70 -0.7 30.7
02:45 1024 30.24 853 25.19 4.2 39.5 71 -0.6 30.9
02:50 1024 30.24 853 25.19 4.1 39.4 71 -0.7 30.8
02:55 1024 30.24 853 25.19 3.9 39 72 -0.7 30.8
03:00 1024 30.24 853 25.19 3.6 38.6 73 -0.7 30.8
03:05 1024 30.24 853 25.19 3.6 38.6 73 -0.7 30.7
03:10 1024 30.24 853 25.19 3.8 38.8 72 -0.8 30.6
03:15 1024 30.24 853 25.19 3.9 39 71 -0.8 30.6
03:20 1024 30.24 853 25.19 3.9 39 71 -0.9 30.5
03:25 1024 30.24 853 25.19 4.1 39.4 70 -0.9 30.4
03:30 1024 30.24 853 25.19 4.3 39.7 69 -0.9 30.4
03:35 1024 30.24 853 25.19 4.3 39.7 70 -0.8 30.5
03:40 1024 30.24 853 25.19 4 39.1 71 -0.8 30.5
03:45 1024 30.24 853 25.19 3.6 38.5 73 -0.8 30.6
03:50 1024 30.24 853 25.19 3.3 38 73 -1 30.3
03:55 1024 30.24 853 25.19 3.1 37.6 75 -0.9 30.4
04:00 1024 30.24 853 25.19 2.7 36.9 77 -0.9 30.4
04:05 1024 30.24 853 25.19 2.5 36.5 78 -1 30.2
04:10 1024 30.24 853 25.19 2.4 36.2 78 -1 30.2
04:15 1024 30.24 853 25.19 2.3 36.2 78 -1.1 30
04:20 1024 30.24 853 25.19 2.7 36.8 77 -1 30.2
04:25 1024 30.24 853 25.19 3.3 37.9 73 -1 30.1
04:30 1024 30.24 853 25.19 3.5 38.3 73 -0.8 30.5
04:35 1024 30.24 853 25.19 3.4 38.1 74 -0.8 30.5
04:40 1024 30.24 853 25.19 3.1 37.6 76 -0.7 30.7
04:45 1024 30.24 853 25.19 2.9 37.3 76 -0.8 30.5
04:50 1024 30.24 854 25.22 2.8 37.1 77 -0.7 30.7
04:55 1024 30.24 854 25.22 2.4 36.3 80 -0.8 30.5
05:00 1024 30.24 854 25.22 2.3 36.2 79 -0.9 30.3
05:05 1024 30.24 854 25.22 2.6 36.7 78 -0.8 30.5
05:10 1024 30.24 854 25.22 2.8 37.1 78 -0.7 30.7
05:15 1024 30.24 854 25.22 2.6 36.6 79 -0.8 30.6
05:20 1024 30.24 854 25.22 2.7 36.9 77 -1 30.2
05:25 1025 30.27 854 25.22 3.1 37.7 75 -0.8 30.5
05:30 1025 30.27 854 25.22 3.3 38 74 -0.9 30.4
05:35 1025 30.27 854 25.22 3.5 38.4 74 -0.7 30.7
05:40 1025 30.27 854 25.22 3.5 38.2 74 -0.7 30.7
05:45 1025 30.27 854 25.22 3.6 38.4 74 -0.7 30.7
05:50 1025 30.27 854 25.22 3.6 38.6 74 -0.6 31
05:55 1025 30.27 854 25.22 3.5 38.4 74 -0.6 30.9
06:00 1025 30.27 854 25.22 3.6 38.4 74 -0.7 30.7
06:05 1025 30.27 854 25.22 3.8 38.8 72 -0.7 30.7
06:10 1025 30.27 854 25.22 3.8 38.9 73 -0.6 30.9
06:15 1025 30.27 854 25.22 3.8 38.8 73 -0.5 31.1
06:20 1025 30.27 854 25.22 3.9 39 73 -0.6 31
06:25 1025 30.27 854 25.22 3.8 38.8 74 -0.3 31.4
06:30 1025 30.27 854 25.22 3.8 38.9 73 -0.5 31.2
06:35 1025 30.27 854 25.22 4.3 39.8 71 -0.5 31.1
06:40 1025 30.27 854 25.22 5.4 41.7 67 -0.3 31.5
06:45 1025 30.27 854 25.22 5.9 42.7 66 0.1 32.2
06:50 1025 30.27 854 25.22 6.2 43.1 66 0.3 32.6
06:55 1025 30.27 854 25.22 6.7 44.1 63 0.1 32.3
07:00 1025 30.27 854 25.22 8 46.3 58 0.1 32.2
07:05 1025 30.27 854 25.22 8.7 47.6 56 0.5 33
07:10 1025 30.27 854 25.22 8.5 47.3 60 1.2 34.1
07:15 1025 30.27 854 25.22 8.2 46.8 58 0.5 32.9
07:20 1025 30.27 854 25.22 9.2 48.6 56 1 33.9
07:25 1025 30.27 854 25.22 9.6 49.4 56 1.3 34.3
07:30 1025 30.27 854 25.22 9.5 49.1 55 1 33.8
07:35 1025 30.27 854 25.22 10 50.1 53 0.9 33.7
07:40 1025 30.27 854 25.22 10.4 50.7 50 0.4 32.6
07:45 1025 30.27 854 25.22 10.7 51.2 51 0.9 33.6
07:50 1025 30.27 854 25.22 10.7 51.3 52 1.2 34.2
07:55 1025 30.27 854 25.22 10.4 50.6 52 1 33.8
08:00 1025 30.27 854 25.22 10.3 50.5 53 1.2 34.2
08:05 1025 30.27 854 25.22 10.2 50.3 53 1.1 33.9
08:10 1025 30.27 854 25.22 10.3 50.6 49 0.2 32.3
08:15 1025 30.27 854 25.22 10.5 51 48 -0.1 31.8
08:20 1025 30.27 854 25.22 11.1 52 45 -0.3 31.5
08:25 1025 30.27 854 25.22 11 51.8 46 -0.2 31.7
08:30 1025 30.27 854 25.22 11.2 52.1 45 -0.2 31.7
08:35 1025 30.27 854 25.22 11 51.8 43 -1 30.2
08:40 1025 30.27 854 25.22 11.2 52.1 44 -0.6 30.9
08:45 1025 30.27 854 25.22 10.7 51.2 45 -0.6 30.9
08:50 1025 30.27 854 25.22 10.8 51.4 46 -0.4 31.2
08:55 1025 30.27 854 25.22 10.6 51.1 44 -1.2 29.9
09:00 1025 30.27 854 25.22 10.7 51.3 43 -1.4 29.4
09:05 1025 30.27 854 25.22 11.5 52.7 42 -1 30.2
09:10 1025 30.27 854 25.22 11.3 52.4 40 -1.7 29
09:15 1025 30.27 854 25.22 11.5 52.7 39 -1.8 28.7
09:20 1025 30.27 854 25.22 11.8 53.3 38 -2 28.4
09:25 1025 30.27 854 25.22 11.9 53.5 38 -1.9 28.6
09:30 1025 30.27 854 25.22 12.3 54.2 37 -2 28.3
09:35 1025 30.27 854 25.22 12.6 54.6 39 -1 30.1
09:40 1025 30.27 854 25.22 12.4 54.3 39 -1.2 29.9
09:45 1025 30.27 854 25.22 12.6 54.6 37 -1.8 28.8
09:50 1025 30.27 854 25.22 12.5 54.6 37 -1.6 29.1
09:55 1025 30.27 854 25.22 12.1 53.8 40 -0.9 30.4
10:00 1025 30.27 854 25.22 11.9 53.3 39 -1.5 29.3
10:05 1025 30.27 854 25.22 12.3 54.1 36 -2.3 27.8
10:10 1025 30.27 854 25.22 12.7 54.8 34 -2.7 27.2
10:15 1025 30.27 854 25.22 12.9 55.1 34 -2.5 27.5
10:20 1025 30.27 854 25.22 12.4 54.3 37 -2 28.4
10:25 1025 30.27 854 25.22 12.3 54.1 36 -2.1 28.2
10:30 1025 30.27 854 25.22 12.4 54.3 35 -2.5 27.5
10:35 1025 30.27 854 25.22 12.5 54.6 35 -2.6 27.4
10:40 1025 30.27 854 25.22 12.6 54.7 33 -3.1 26.4
10:45 1025 30.27 854 25.22 13.5 56.2 33 -2.4 27.7
10:50 1025 30.27 854 25.22 13.4 56 35 -1.8 28.7
10:55 1025 30.27 854 25.22 12.2 53.9 35 -2.6 27.3
11:00 1025 30.27 854 25.22 12.2 53.9 35 -2.8 27
11:05 1025 30.27 854 25.22 12.8 55 34 -2.5 27.5
11:10 1025 30.27 854 25.22 12.9 55.3 33 -2.8 26.9
11:15 1025 30.27 854 25.22 13 55.4 35 -2.1 28.1
11:20 1025 30.27 854 25.22 13.6 56.4 32 -2.7 27.1
11:25 1025 30.27 854 25.22 13.5 56.2 32 -3 26.7
11:30 1025 30.27 854 25.22 13.3 55.9 32 -3.1 26.4
11:35 1025 30.27 854 25.22 14.1 57.3 29 -3.4 25.8
11:40 1025 30.27 854 25.22 14 57.2 32 -2.5 27.5
11:45 1024 30.24 854 25.22 13.9 57 32 -2.6 27.4
11:50 1024 30.24 854 25.22 13.6 56.4 34 -2 28.3
11:55 1024 30.24 854 25.22 13.5 56.2 35 -1.5 29.2
12:00 1024 30.24 853 25.19 12.7 54.9 38 -1 30.1
12:05 1024 30.24 853 25.19 12.6 54.7 35 -2.3 27.8
12:10 1024 30.24 853 25.19 12.8 55 35 -2.1 28.1
12:15 1024 30.24 853 25.19 13.4 56.1 32 -2.9 26.7
12:20 1024 30.24 853 25.19 12.9 55.2 36 -1.9 28.5
12:25 1024 30.24 853 25.19 12.7 54.9 36 -1.9 28.5
12:30 1024 30.24 853 25.19 13.6 56.5 33 -2.1 28.2
12:35 1024 30.24 853 25.19 13.8 56.8 34 -1.7 28.9
12:40 1024 30.24 853 25.19 13.7 56.6 34 -1.9 28.6
12:45 1024 30.24 853 25.19 13.7 56.7 33 -2.3 27.9
12:50 1024 30.24 853 25.19 14.3 57.8 32 -2.2 28
12:55 1024 30.24 853 25.19 14.8 58.7 31 -2.2 28.1
13:00 1024 30.24 853 25.19 14.5 58.1 33 -1.5 29.2
13:05 1024 30.24 853 25.19 14.7 58.5 30 -2.8 27
13:10 1024 30.24 853 25.19 15.5 59.8 29 -2.5 27.5
13:15 1024 30.24 853 25.19 15.8 60.4 28 -2.7 27.2
13:20 1024 30.24 853 25.19 15.8 60.5 29 -2.1 28.3
13:25 1024 30.24 853 25.19 15.5 59.9 29 -2.5 27.4
13:30 1024 30.24 853 25.19 15.3 59.5 29 -2.5 27.6
13:35 1024 30.24 853 25.19 15.4 59.7 31 -1.8 28.8
13:40 1024 30.24 853 25.19 15.4 59.7 28 -2.9 26.8
13:45 1024 30.24 853 25.19 16.1 60.9 28 -2.1 28.2
13:50 1024 30.24 853 25.19 16.3 61.3 28 -2.4 27.7
13:55 1024 30.24 853 25.19 16.1 61 28 -2.4 27.8
14:00 1024 30.24 853 25.19 16.1 61.1 28 -2.3 27.9
14:05 1024 30.24 853 25.19 16.3 61.3 27 -2.6 27.3
14:10 1024 30.24 853 25.19 16 60.9 27 -2.8 26.9
14:15 1024 30.24 853 25.19 15.7 60.3 28 -2.5 27.5
14:20 1023 30.21 853 25.19 15.7 60.3 29 -2.3 27.9
14:25 1023 30.21 853 25.19 15.8 60.4 28 -2.4 27.7
14:30 1023 30.21 853 25.19 16.3 61.3 27 -2.7 27.2
14:35 1023 30.21 853 25.19 16.7 62 26 -2.8 27
14:40 1023 30.21 853 25.19 16.3 61.4 25 -3.8 25.1
14:45 1023 30.21 853 25.19 16.6 61.9 23 -4.8 23.4
14:50 1023 30.21 852 25.16 16.2 61.1 25 -3.9 25
14:55 1023 30.21 852 25.16 15.2 59.4 27 -3.8 25.2
15:00 1023 30.21 852 25.16 15.9 60.6 25 -4.1 24.7
15:05 1023 30.21 852 25.16 16.6 61.9 26 -3 26.5
15:10 1023 30.21 852 25.16 16.4 61.6 25 -3.3 26
15:15 1023 30.21 852 25.16 15.8 60.4 25 -4.1 24.5
15:20 1023 30.21 852 25.16 16.3 61.4 23 -4.7 23.6
15:25 1023 30.21 852 25.16 16.7 62.1 25 -3.4 25.9
15:30 1023 30.21 852 25.16 16 60.7 25 -4 24.9
15:35 1023 30.21 852 25.16 16.3 61.3 24 -4.2 24.5
15:40 1023 30.21 852 25.16 16.9 62.5 23 -4.5 23.9
15:45 1023 30.21 852 25.16 16.9 62.3 24 -3.7 25.3
15:50 1023 30.21 852 25.16 16.8 62.3 24 -3.8 25.2
15:55 1023 30.21 852 25.16 16.4 61.4 25 -3.7 25.4
16:00 1023 30.21 852 25.16 16.2 61.2 25 -3.8 25.1
16:05 1023 30.21 852 25.16 16.3 61.3 24 -4.4 24.2
16:10 1023 30.21 852 25.16 16.2 61.2 24 -4.5 23.9
16:15 1023 30.21 852 25.16 15.8 60.4 25 -4 24.8
16:20 1023 30.21 852 25.16 16.3 61.3 24 -4.5 23.9
16:25 1023 30.21 852 25.16 16.5 61.7 23 -4.7 23.5
16:30 1023 30.21 852 25.16 16.6 61.8 23 -4.3 24.2
16:35 1023 30.21 852 25.16 16.2 61.1 24 -4.5 23.9
16:40 1023 30.21 852 25.16 16.7 62 23 -4.5 23.9
16:45 1023 30.21 852 25.16 16.3 61.3 24 -4.2 24.5
16:50 1023 30.21 852 25.16 16.2 61.2 24 -4.3 24.2
16:55 1023 30.21 852 25.16 16.7 62.1 23 -4.3 24.2
17:00 1023 30.21 852 25.16 15.9 60.6 26 -3.5 25.8
17:05 1022 30.18 852 25.16 15.6 60 25 -4.1 24.6
17:10 1022 30.18 852 25.16 16.2 61.2 24 -4 24.8
17:15 1022 30.18 852 25.16 16.2 61.2 25 -3.8 25.2
17:20 1022 30.18 852 25.16 16.4 61.4 25 -3.6 25.5
17:25 1022 30.18 851 25.13 15.7 60.2 26 -3.7 25.4
17:30 1022 30.18 851 25.13 15.7 60.2 25 -4.2 24.4
17:35 1022 30.18 851 25.13 16.5 61.6 24 -4 24.8
17:40 1022 30.18 851 25.13 16.1 60.9 25 -3.8 25.2
17:45 1022 30.18 851 25.13 15.6 60.1 25 -4.1 24.7
17:50 1022 30.18 851 25.13 16.1 60.9 24 -4.2 24.4
17:55 1022 30.18 851 25.13 16.5 61.7 25 -3.3 26.1
18:00 1022 30.18 851 25.13 16.6 61.8 25 -3.4 25.8
18:05 1022 30.18 851 25.13 16.6 61.8 25 -3.5 25.7
18:10 1022 30.18 851 25.13 16.5 61.7 25 -3.5 25.6
18:15 1022 30.18 851 25.13 16 60.9 24 -4.4 24.1
18:20 1022 30.18 851 25.13 15.1 59.2 25 -4.5 23.9
18:25 1022 30.18 851 25.13 14.7 58.5 27 -4 24.7
18:30 1022 30.18 851 25.13 14.7 58.5 27 -3.9 25
18:35 1022 30.18 851 25.13 14.8 58.7 27 -3.9 24.9
18:40 1022 30.18 851 25.13 14.7 58.4 28 -3.5 25.7
18:45 1022 30.18 851 25.13 14.5 58.2 29 -3.3 26
18:50 1022 30.18 851 25.13 14.6 58.2 28 -3.5 25.7
18:55 1022 30.18 851 25.13 14.6 58.2 29 -3.3 26.1
19:00 1022 30.18 851 25.13 14.5 58.1 29 -3.3 26
19:05 1022 30.18 851 25.13 14.2 57.6 29 -3.3 26.1
19:10 1022 30.18 851 25.13 14.1 57.5 29 -3.4 26
19:15 1022 30.18 851 25.13 14 57.3 30 -3.4 25.9
19:20 1022 30.18 851 25.13 13.9 57.1 29 -3.6 25.6
19:25 1022 30.18 851 25.13 13.7 56.7 29 -3.7 25.3
19:30 1022 30.18 851 25.13 13.7 56.7 30 -3.5 25.7
19:35 1022 30.18 851 25.13 13.6 56.5 30 -3.4 25.9
19:40 1022 30.18 851 25.13 13.5 56.3 31 -3.3 26
19:45 1022 30.18 851 25.13 13.4 56.1 31 -3.3 26.1
19:50 1022 30.18 851 25.13 13.2 55.7 32 -3.1 26.5
19:55 1022 30.18 851 25.13 13 55.5 33 -2.9 26.9
20:00 1022 30.18 851 25.13 12.9 55.2 34 -2.7 27.1
20:05 1022 30.18 851 25.13 12.8 55 34 -2.8 27
20:10 1022 30.18 851 25.13 12.7 54.9 34 -2.8 27
20:15 1022 30.18 851 25.13 12.6 54.7 34 -2.6 27.3
20:20 1022 30.18 851 25.13 12.4 54.3 37 -2 28.5
20:25 1022 30.18 851 25.13 12.2 54 38 -1.6 29.1
20:30 1022 30.18 851 25.13 11.9 53.4 41 -0.8 30.6
20:35 1022 30.18 851 25.13 11.4 52.5 42 -1 30.2
20:40 1022 30.18 851 25.13 11.4 52.6 44 -0.4 31.2
20:45 1022 30.18 851 25.13 11.1 51.9 46 0 32
20:50 1022 30.18 851 25.13 10.8 51.4 47 0 32
20:55 1022 30.18 851 25.13 10.6 51 50 0.5 33
21:00 1022 30.18 852 25.16 9.9 49.8 52 0.5 33
21:05 1022 30.18 852 25.16 9.4 48.9 51 -0.1 31.9
21:10 1022 30.18 852 25.16 9.3 48.8 47 -1.4 29.5
21:15 1022 30.18 852 25.16 9.5 49.2 48 -0.8 30.5
21:20 1022 30.18 852 25.16 9.3 48.8 49 -0.9 30.4
21:25 1022 30.18 852 25.16 9.4 49 49 -0.6 30.8
21:30 1022 30.18 852 25.16 9.1 48.4 48 -1.3 29.7
21:35 1022 30.18 852 25.16 8.9 48 50 -0.9 30.3
21:40 1022 30.18 852 25.16 9.2 48.5 47 -1.4 29.4
21:45 1022 30.18 852 25.16 9.2 48.6 49 -1 30.2
21:50 1022 30.18 852 25.16 8.7 47.6 51 -0.7 30.7
21:55 1022 30.18 852 25.16 8.2 46.8 52 -1.1 30
22:00 1022 30.18 852 25.16 7.9 46.3 55 -0.6 30.9
22:05 1022 30.18 852 25.16 7.5 45.5 55 -0.8 30.5
22:10 1022 30.18 852 25.16 7.5 45.6 55 -1 30.3
22:15 1022 30.18 852 25.16 7.6 45.8 55 -0.8 30.6
22:20 1022 30.18 851 25.13 7.5 45.5 56 -0.7 30.8
22:25 1022 30.18 851 25.13 7.4 45.3 57 -0.6 30.9
22:30 1022 30.18 851 25.13 7.3 45.2 57 -0.6 30.9
22:35 1022 30.18 851 25.13 7.2 45 57 -0.7 30.8
22:40 1022 30.18 851 25.13 7.3 45.1 56 -0.8 30.5
22:45 1022 30.18 851 25.13 7.3 45.2 55 -1 30.2
22:50 1022 30.18 851 25.13 7.3 45.2 56 -0.9 30.3
22:55 1022 30.18 851 25.13 7.3 45.1 56 -0.9 30.4
23:00 1022 30.18 851 25.13 7.3 45.2 55 -1 30.2
23:05 1022 30.18 851 25.13 7.5 45.5 55 -0.9 30.4
23:10 1022 30.18 851 25.13 7.5 45.5 55 -0.9 30.3
23:15 1022 30.18 851 25.13 7.4 45.4 55 -0.9 30.4
23:20 1022 30.18 851 25.13 7.4 45.3 56 -0.8 30.6
23:25 1022 30.18 851 25.13 7.3 45.1 56 -0.8 30.5
23:30 1022 30.18 851 25.13 7.2 45 57 -0.7 30.7
23:35 1022 30.18 851 25.13 7.1 44.9 57 -0.7 30.8
23:40 1022 30.18 851 25.13 7.1 44.7 58 -0.6 30.9
23:45 1022 30.18 851 25.13 7 44.6 59 -0.5 31.2
23:50 1022 30.18 851 25.13 7 44.5 59 -0.4 31.2
23:55 1022 30.18 851 25.13 7 44.5 59 -0.4 31.3
24:00 1022 30.18 851 25.13 7 44.6 59 -0.5 31.1